Ranchito, New Mexico
Current Conditions -  °F | °C
As of 7:55 AM on Saturday 20 Dec 2014 (Local Time) from KSKX Reporting Station
Clear Clear  
Wind Chill:   Ceiling: Unl
Heat Index: 16°   Visibility: 10mi
Dew Point:   Wind: 7mph
Humidity: 73%   Direction: 10°N
Pressure: 30.15"   Gusts: NA
Location:  36.4227°N, 105.509°W
Report Text: KSKX 201455Z AUTO 01006KT 10SM CLR M09/M13 A3015 RMK AO1 57010
Loading
Personal Weather Stations






























Interactive Weather Map New forecast layout! Learn more

10-Day Weather Forecast

Advertisements
Track Severe Weather on mobile